createdAt,value
2022-09-22T00:00:03.151Z,1025.66
2022-09-22T00:05:02.486Z,1025.66
2022-09-22T00:10:03.115Z,1025.64
2022-09-22T00:15:02.919Z,1025.61
2022-09-22T00:20:02.577Z,1025.68
2022-09-22T00:25:03.284Z,1025.58
2022-09-22T00:30:06.998Z,1025.7
2022-09-22T00:35:03.233Z,1025.56
2022-09-22T00:40:03.702Z,1025.57
2022-09-22T00:45:03.144Z,1025.69
2022-09-22T00:50:03.006Z,1025.57
2022-09-22T00:55:03.810Z,1025.57
2022-09-22T01:00:03.302Z,1025.55
2022-09-22T01:05:03.000Z,1025.52
2022-09-22T01:10:02.831Z,1025.31
2022-09-22T01:15:03.519Z,1025.42
2022-09-22T01:20:02.908Z,1025.49
2022-09-22T01:25:02.625Z,1025.54
2022-09-22T01:30:03.292Z,1025.39
2022-09-22T01:35:02.906Z,1025.34
2022-09-22T01:40:02.806Z,1025.36
2022-09-22T01:45:03.417Z,1025.26
2022-09-22T01:50:02.482Z,1025.31
2022-09-22T01:55:04.117Z,1025.3
2022-09-22T02:00:02.715Z,1025.37
2022-09-22T02:05:03.337Z,1025.27
2022-09-22T02:10:03.337Z,1025.26
2022-09-22T02:15:03.231Z,1025.17
2022-09-22T02:20:02.711Z,1025.15
2022-09-22T02:25:03.328Z,1025.18
2022-09-22T02:30:03.011Z,1025.23
2022-09-22T02:35:02.691Z,1025.24
2022-09-22T02:40:03.509Z,1025.23
2022-09-22T02:45:03.008Z,1025.24
2022-09-22T02:50:02.684Z,1025.21
2022-09-22T02:55:04.593Z,1025.25
2022-09-22T03:00:03.103Z,1025.16
2022-09-22T03:05:02.927Z,1025.1
2022-09-22T03:10:03.308Z,1025.17
2022-09-22T03:15:03.039Z,1025.18
2022-09-22T03:20:02.747Z,1025.07
2022-09-22T03:25:03.387Z,1025.05
2022-09-22T03:30:03.039Z,1025.06
2022-09-22T03:35:02.625Z,1025.06
2022-09-22T03:40:03.368Z,1025.11
2022-09-22T03:45:02.935Z,1025.07
2022-09-22T03:50:02.497Z,1025.01
2022-09-22T03:55:04.047Z,1025.03
2022-09-22T04:00:02.876Z,1025.05
2022-09-22T04:05:02.523Z,1025.03
2022-09-22T04:10:03.299Z,1025.06
2022-09-22T04:15:02.888Z,1025.11
2022-09-22T04:20:02.606Z,1025.09
2022-09-22T04:25:03.384Z,1025.06
2022-09-22T04:30:03.423Z,1025.08
2022-09-22T04:35:02.896Z,1025.09
2022-09-22T04:40:02.881Z,1025.07
2022-09-22T04:45:03.111Z,1025.09
2022-09-22T04:50:02.847Z,1025.08
2022-09-22T04:55:04.361Z,1025.03
2022-09-22T05:00:03.272Z,1025.07
2022-09-22T05:05:03.034Z,1025.07
2022-09-22T05:10:02.856Z,1025.21
2022-09-22T05:15:03.307Z,1025.09
2022-09-22T05:20:02.981Z,1025.16
2022-09-22T05:25:02.651Z,1025.2
2022-09-22T05:30:03.279Z,1025.28
2022-09-22T05:35:02.874Z,1025.32
2022-09-22T05:40:02.946Z,1025.35
2022-09-22T05:45:03.253Z,1025.34
2022-09-22T05:50:02.918Z,1025.43
2022-09-22T05:55:03.748Z,1025.55
2022-09-22T06:00:03.311Z,1025.5
2022-09-22T06:05:02.911Z,1025.48
2022-09-22T06:10:02.629Z,1025.51
2022-09-22T06:15:03.478Z,1025.52
2022-09-22T06:20:03.191Z,1025.51
2022-09-22T06:25:02.872Z,1025.56
2022-09-22T06:30:02.528Z,1025.62
2022-09-22T06:35:03.191Z,1025.61
2022-09-22T06:40:02.982Z,1025.67
2022-09-22T06:45:02.534Z,1025.67
2022-09-22T06:50:03.362Z,1025.66
2022-09-22T06:55:03.949Z,1025.63
2022-09-22T07:00:02.906Z,1025.75
2022-09-22T07:05:02.553Z,1025.73
2022-09-22T07:10:03.258Z,1025.78
2022-09-22T07:15:02.928Z,1025.66
2022-09-22T07:20:02.625Z,1025.63
2022-09-22T07:25:03.227Z,1025.51
2022-09-22T07:30:02.780Z,1025.59
2022-09-22T07:35:02.653Z,1025.55
2022-09-22T07:40:03.570Z,1025.42
2022-09-22T07:45:03.073Z,1025.55
2022-09-22T07:50:02.820Z,1025.56
2022-09-22T07:55:03.791Z,1025.53
2022-09-22T08:00:03.272Z,1025.52
2022-09-22T08:05:02.916Z,1025.52
2022-09-22T08:10:02.707Z,1025.45
2022-09-22T08:15:03.435Z,1025.52
2022-09-22T08:20:03.115Z,1025.46
2022-09-22T08:25:02.780Z,1025.48
2022-09-22T08:30:03.483Z,1025.52
2022-09-22T08:35:03.223Z,1025.49
2022-09-22T08:40:03.025Z,1025.47
2022-09-22T08:45:03.446Z,1025.46
2022-09-22T08:50:03.186Z,1025.46
2022-09-22T08:55:04.054Z,1025.5
2022-09-22T09:00:02.649Z,1025.53
2022-09-22T09:05:02.702Z,1025.45
2022-09-22T09:10:03.445Z,1025.39
2022-09-22T09:15:03.197Z,1025.35
2022-09-22T09:20:03.166Z,1025.34
2022-09-22T09:25:28.534Z,1025.39
2022-09-22T09:30:03.226Z,1025.45
2022-09-22T09:35:02.826Z,1025.35
2022-09-22T09:40:02.676Z,1025.32
2022-09-22T09:45:03.428Z,1025.38
2022-09-22T09:50:03.042Z,1025.25
2022-09-22T09:55:03.831Z,1025.25
2022-09-22T10:00:02.951Z,1025.31
2022-09-22T10:05:02.561Z,1025.34
2022-09-22T10:10:02.505Z,1025.36
2022-09-22T10:15:03.254Z,1025.31
2022-09-22T10:20:03.335Z,1025.34
2022-09-22T10:25:02.891Z,1025.19
2022-09-22T10:30:02.598Z,1025.26
2022-09-22T10:35:03.174Z,1025.23
2022-09-22T10:40:03.130Z,1025.24
2022-09-22T10:45:02.581Z,1025.09
2022-09-22T10:50:03.236Z,1025.25
2022-09-22T10:55:04.022Z,1025.15
2022-09-22T11:00:02.590Z,1025.11
2022-09-22T11:05:03.242Z,1025.11
2022-09-22T11:10:02.516Z,1025.1
2022-09-22T11:15:02.418Z,1025
2022-09-22T11:20:03.126Z,1025.12
2022-09-22T11:25:02.814Z,1025.03
2022-09-22T11:30:13.191Z,1025.06
2022-09-22T11:35:03.087Z,1024.94
2022-09-22T11:40:03.589Z,1024.88
2022-09-22T11:45:02.849Z,1024.94
2022-09-22T11:50:02.581Z,1024.78
2022-09-22T11:55:04.173Z,1024.83
2022-09-22T12:00:02.873Z,1024.69
2022-09-22T12:05:02.531Z,1024.68
2022-09-22T12:10:03.260Z,1024.51
2022-09-22T12:15:02.968Z,1024.62
2022-09-22T12:20:02.713Z,1024.58
2022-09-22T12:25:03.412Z,1024.41
2022-09-22T12:30:02.954Z,1024.47
2022-09-22T12:35:02.609Z,1024.31
2022-09-22T12:40:03.402Z,1024.33
2022-09-22T12:45:03.002Z,1024.33
2022-09-22T12:50:02.728Z,1024.33
2022-09-22T12:55:04.459Z,1024.25
2022-09-22T13:00:03.115Z,1024.19
2022-09-22T13:05:02.806Z,1024.2
2022-09-22T13:10:02.542Z,1024.15
2022-09-22T13:15:03.328Z,1024.13
2022-09-22T13:20:03.037Z,1024.09
2022-09-22T13:25:02.687Z,1024.11
2022-09-22T13:30:02.611Z,1024.01
2022-09-22T13:35:03.274Z,1024.02
2022-09-22T13:40:03.185Z,1024
2022-09-22T13:45:02.754Z,1023.82
2022-09-22T13:50:03.470Z,1023.8
2022-09-22T13:55:03.824Z,1023.77
2022-09-22T14:00:02.662Z,1023.71
2022-09-22T14:05:03.273Z,1023.61
2022-09-22T14:10:03.327Z,1023.66
2022-09-22T14:15:02.619Z,1023.62
2022-09-22T14:20:03.329Z,1023.71
2022-09-22T14:25:02.918Z,1023.62
2022-09-22T14:30:02.652Z,1023.6
2022-09-22T14:35:03.442Z,1023.58
2022-09-22T14:40:03.480Z,1023.59
2022-09-22T14:45:02.792Z,1023.53
2022-09-22T14:50:03.285Z,1023.58
2022-09-22T14:55:04.455Z,1023.52
2022-09-22T15:00:02.667Z,1023.39
2022-09-22T15:05:02.342Z,1023.37
2022-09-22T15:10:02.928Z,1023.32
2022-09-22T15:15:02.483Z,1023.3
2022-09-22T15:20:02.234Z,1023.25
2022-09-22T15:25:02.727Z,1023.22
2022-09-22T15:30:02.475Z,1023.18
2022-09-22T15:35:03.203Z,1023.18
2022-09-22T15:40:03.074Z,1023.26
2022-09-22T15:45:02.791Z,1023.22
2022-09-22T15:50:03.249Z,1023.23
2022-09-22T15:55:04.080Z,1023.15
2022-09-22T16:00:02.432Z,1023.22
2022-09-22T16:05:03.120Z,1023.21
2022-09-22T16:10:02.921Z,1023.14
2022-09-22T16:15:02.523Z,1023.01
2022-09-22T16:20:03.162Z,1023.1
2022-09-22T16:25:02.776Z,1023.08
2022-09-22T16:30:02.752Z,1023.01
2022-09-22T16:35:03.201Z,1022.97
2022-09-22T16:40:03.191Z,1022.82
2022-09-22T16:45:02.668Z,1022.88
2022-09-22T16:50:03.233Z,1022.8
2022-09-22T16:55:03.801Z,1022.84
2022-09-22T17:00:02.520Z,1022.75
2022-09-22T17:05:03.165Z,1022.83
2022-09-22T17:10:02.700Z,1022.92
2022-09-22T17:15:02.569Z,1022.9
2022-09-22T17:20:03.415Z,1022.85
2022-09-22T17:25:02.943Z,1022.89
2022-09-22T17:30:02.769Z,1022.87
2022-09-22T17:35:03.362Z,1022.92
2022-09-22T17:40:02.988Z,1022.97
2022-09-22T17:45:02.548Z,1022.9
2022-09-22T17:50:03.274Z,1022.91
2022-09-22T17:55:03.755Z,1022.88
2022-09-22T18:00:02.541Z,1022.91
2022-09-22T18:05:03.076Z,1022.97
2022-09-22T18:10:02.906Z,1022.88
2022-09-22T18:15:02.647Z,1022.91
2022-09-22T18:20:03.841Z,1022.92
2022-09-22T18:25:02.944Z,1022.89
2022-09-22T18:30:02.650Z,1023.06
2022-09-22T18:35:03.202Z,1022.99
2022-09-22T18:40:02.982Z,1022.89
2022-09-22T18:45:02.891Z,1023
2022-09-22T18:50:03.260Z,1023.05
2022-09-22T18:55:04.134Z,1023.06
2022-09-22T19:00:02.728Z,1022.99
2022-09-22T19:05:03.398Z,1023.04
2022-09-22T19:10:03.186Z,1023.05
2022-09-22T19:15:02.878Z,1023.09
2022-09-22T19:20:02.508Z,1023.15
2022-09-22T19:25:03.107Z,1023.07
2022-09-22T19:30:02.783Z,1023.09
2022-09-22T19:35:03.370Z,1023.08
2022-09-22T19:40:03.416Z,1023.05
2022-09-22T19:45:02.781Z,1023
2022-09-22T19:50:03.204Z,1022.97
2022-09-22T19:55:04.054Z,1023.05
2022-09-22T20:00:02.786Z,1023.04
2022-09-22T20:05:03.440Z,1023.1
2022-09-22T20:10:03.127Z,1022.91
2022-09-22T20:15:02.980Z,1023.01
2022-09-22T20:20:02.749Z,1022.93
2022-09-22T20:25:03.251Z,1022.95
2022-09-22T20:30:02.917Z,1022.94
2022-09-22T20:35:02.492Z,1023.01
2022-09-22T20:40:03.256Z,1023.03
2022-09-22T20:45:02.939Z,1022.95
2022-09-22T20:50:02.514Z,1022.99
2022-09-22T20:55:04.606Z,1022.95
2022-09-22T21:00:03.195Z,1023
2022-09-22T21:05:02.677Z,1022.92
2022-09-22T21:10:03.318Z,1022.93
2022-09-22T21:15:02.992Z,1022.9
2022-09-22T21:20:03.059Z,1023
2022-09-22T21:25:02.786Z,1022.99
2022-09-22T21:30:03.341Z,1023.01
2022-09-22T21:35:02.910Z,1022.96
2022-09-22T21:40:03.003Z,1022.98
2022-09-22T21:45:03.208Z,1022.94
2022-09-22T21:50:02.765Z,1022.99
2022-09-22T21:55:04.256Z,1022.87
2022-09-22T22:00:03.023Z,1022.88
2022-09-22T22:05:02.601Z,1022.88
2022-09-22T22:10:03.240Z,1022.71
2022-09-22T22:15:02.742Z,1022.84
2022-09-22T22:20:03.291Z,1022.8
2022-09-22T22:25:02.869Z,1022.8
2022-09-22T22:30:03.020Z,1022.78
2022-09-22T22:35:03.192Z,1022.76
2022-09-22T22:40:02.914Z,1022.76
2022-09-22T22:45:02.491Z,1022.78
2022-09-22T22:50:03.101Z,1022.87
2022-09-22T22:55:04.211Z,1022.77
2022-09-22T23:00:02.252Z,1022.8
2022-09-22T23:05:03.322Z,1022.71
2022-09-22T23:10:02.779Z,1022.73
2022-09-22T23:15:02.804Z,1022.65
2022-09-22T23:20:02.489Z,1022.61
2022-09-22T23:25:03.027Z,1022.6
2022-09-22T23:30:02.696Z,1022.55
2022-09-22T23:35:02.348Z,1022.37
2022-09-22T23:40:03.078Z,1022.5
2022-09-22T23:45:02.640Z,1022.46
2022-09-22T23:50:02.354Z,1022.37
2022-09-22T23:55:04.383Z,1022.37
